createdAt,value
2017-11-13T00:00:22.563Z,7.50
2017-11-13T00:02:50.277Z,6.78
2017-11-13T00:05:18.075Z,7.45
2017-11-13T00:07:45.771Z,7.25
2017-11-13T00:10:14.248Z,7.35
2017-11-13T00:12:42.098Z,7.70
2017-11-13T00:15:09.953Z,6.20
2017-11-13T00:17:37.827Z,8.20
2017-11-13T00:20:06.406Z,6.37
2017-11-13T00:22:34.273Z,6.75
2017-11-13T00:25:02.145Z,8.25
2017-11-13T00:27:30.010Z,7.32
2017-11-13T00:29:57.876Z,7.60
2017-11-13T00:32:25.741Z,7.80
2017-11-13T00:34:53.448Z,7.78
2017-11-13T00:37:21.924Z,9.45
2017-11-13T00:39:50.471Z,9.95
2017-11-13T00:42:18.339Z,10.63
2017-11-13T00:44:46.046Z,10.00
2017-11-13T00:47:14.523Z,10.07
2017-11-13T00:49:42.992Z,10.05
2017-11-13T00:52:10.836Z,10.00
2017-11-13T00:54:38.699Z,8.85
2017-11-13T00:57:06.404Z,9.00
2017-11-13T00:59:34.881Z,8.23
2017-11-13T01:02:03.538Z,9.52
2017-11-13T01:04:31.399Z,10.00
2017-11-13T01:06:59.265Z,9.43
2017-11-13T01:09:27.130Z,8.90
2017-11-13T01:11:54.998Z,9.15
2017-11-13T01:14:22.865Z,9.40
2017-11-13T01:16:50.733Z,9.85
2017-11-13T01:19:18.600Z,9.75
2017-11-13T01:21:46.468Z,8.95
2017-11-13T01:24:14.334Z,7.82
2017-11-13T01:26:42.203Z,9.32
2017-11-13T01:29:10.070Z,8.75
2017-11-13T01:31:37.937Z,9.00
2017-11-13T01:34:05.804Z,9.05
2017-11-13T01:36:33.672Z,9.30
2017-11-13T01:39:01.404Z,10.85
2017-11-13T01:41:29.203Z,11.32
2017-11-13T01:43:57.068Z,10.80
2017-11-13T01:46:24.936Z,10.02
2017-11-13T01:48:52.802Z,9.93
2017-11-13T01:51:20.671Z,9.48
2017-11-13T01:53:48.550Z,9.30
2017-11-13T01:56:17.224Z,9.35
2017-11-13T01:58:45.093Z,8.27
2017-11-13T02:01:12.961Z,8.60
2017-11-13T02:03:40.826Z,8.45
2017-11-13T02:06:08.796Z,9.50
2017-11-13T02:08:36.632Z,8.25
2017-11-13T02:11:04.391Z,8.15
2017-11-13T02:13:32.153Z,8.52
2017-11-13T02:16:00.070Z,9.20
2017-11-13T02:18:28.747Z,9.70
2017-11-13T02:20:56.614Z,8.40
2017-11-13T02:23:24.481Z,8.48
2017-11-13T02:25:52.452Z,8.35
2017-11-13T02:28:20.322Z,8.50
2017-11-13T02:30:48.186Z,9.20
2017-11-13T02:33:16.052Z,8.60
2017-11-13T02:35:43.924Z,8.95
2017-11-13T02:38:11.787Z,8.57
2017-11-13T02:40:39.655Z,9.35
2017-11-13T02:43:07.523Z,9.85
2017-11-13T02:45:35.492Z,10.20
2017-11-13T02:48:03.358Z,10.70
2017-11-13T02:50:31.127Z,9.75
2017-11-13T02:52:58.936Z,10.38
2017-11-13T02:55:27.519Z,9.23
2017-11-13T02:57:56.263Z,9.85
2017-11-13T03:00:24.140Z,9.90
2017-11-13T03:02:51.996Z,9.75
2017-11-13T03:05:19.868Z,11.38
2017-11-13T03:07:47.732Z,9.63
2017-11-13T03:10:15.598Z,9.15
2017-11-13T03:12:43.470Z,9.20
2017-11-13T03:15:11.541Z,9.60
2017-11-13T03:17:40.123Z,9.75
2017-11-13T03:20:07.990Z,9.77
2017-11-13T03:22:35.857Z,9.20
2017-11-13T03:25:03.631Z,9.60
2017-11-13T03:27:31.489Z,10.30
2017-11-13T03:29:59.356Z,11.10
2017-11-13T03:32:27.225Z,9.75
2017-11-13T03:34:55.024Z,10.32
2017-11-13T03:37:23.676Z,10.35
2017-11-13T03:39:51.471Z,10.05
2017-11-13T03:42:20.127Z,10.02
2017-11-13T03:44:47.993Z,9.25
2017-11-13T03:47:15.713Z,10.45
2017-11-13T03:49:43.432Z,11.10
2017-11-13T03:52:11.153Z,11.02
2017-11-13T03:54:38.862Z,10.50
2017-11-13T03:57:06.575Z,11.20
2017-11-13T03:59:34.379Z,10.50
2017-11-13T04:02:02.245Z,10.13
2017-11-13T04:04:30.141Z,9.70
2017-11-13T04:06:58.700Z,9.52
2017-11-13T04:09:26.568Z,10.15
2017-11-13T04:11:54.434Z,9.07
2017-11-13T04:14:22.304Z,9.27
2017-11-13T04:16:50.098Z,10.55
2017-11-13T04:19:18.632Z,10.15
2017-11-13T04:21:46.414Z,10.57
2017-11-13T04:24:14.281Z,9.98
2017-11-13T04:26:42.151Z,10.23
2017-11-13T04:29:10.016Z,10.52
2017-11-13T04:31:37.882Z,10.32
2017-11-13T04:34:05.648Z,11.20
2017-11-13T04:36:33.514Z,11.10
2017-11-13T04:39:01.382Z,11.07
2017-11-13T04:41:29.659Z,9.93
2017-11-13T04:43:57.373Z,10.57
2017-11-13T04:46:25.085Z,9.07
2017-11-13T04:48:52.852Z,9.73
2017-11-13T04:51:20.722Z,10.07
2017-11-13T04:53:48.586Z,10.90
2017-11-13T04:56:16.453Z,10.85
2017-11-13T04:58:44.321Z,10.40
2017-11-13T05:01:12.118Z,12.37
2017-11-13T05:03:40.670Z,11.88
2017-11-13T05:06:08.537Z,10.50
2017-11-13T05:08:36.283Z,10.38
2017-11-13T05:11:04.003Z,9.95
2017-11-13T05:13:32.560Z,12.45
2017-11-13T05:16:00.704Z,11.27
2017-11-13T05:18:30.102Z,9.65
2017-11-13T05:20:59.979Z,11.82
2017-11-13T05:23:28.480Z,10.50
2017-11-13T05:25:56.246Z,10.52
2017-11-13T05:28:23.972Z,9.80
2017-11-13T05:30:51.777Z,11.50
2017-11-13T05:33:19.547Z,11.12
2017-11-13T05:35:47.450Z,11.15
2017-11-13T05:38:15.319Z,12.05
2017-11-13T05:40:43.051Z,11.10
2017-11-13T05:43:10.840Z,13.32
2017-11-13T05:45:38.714Z,10.40
2017-11-13T05:48:06.582Z,10.60
2017-11-13T05:50:34.347Z,11.20
2017-11-13T05:53:02.216Z,10.68
2017-11-13T05:55:30.082Z,12.13
2017-11-13T05:57:57.948Z,12.48
2017-11-13T06:00:25.817Z,12.35
2017-11-13T06:02:53.683Z,12.85
2017-11-13T06:05:21.552Z,12.37
2017-11-13T06:07:49.284Z,12.63
2017-11-13T06:10:17.182Z,12.05
2017-11-13T06:12:44.908Z,12.27
2017-11-13T06:15:12.713Z,12.70
2017-11-13T06:17:40.440Z,11.02
2017-11-13T06:20:08.179Z,11.32
2017-11-13T06:22:36.689Z,12.63
2017-11-13T06:25:04.489Z,11.25
2017-11-13T06:27:32.368Z,13.38
2017-11-13T06:30:00.108Z,11.93
2017-11-13T06:32:27.990Z,11.15
2017-11-13T06:34:55.723Z,11.43
2017-11-13T06:37:23.456Z,12.32
2017-11-13T06:39:51.951Z,12.25
2017-11-13T06:42:19.680Z,11.48
2017-11-13T06:44:47.439Z,12.02
2017-11-13T06:47:15.298Z,12.35
2017-11-13T06:49:43.164Z,10.95
2017-11-13T06:52:10.888Z,11.90
2017-11-13T06:54:38.636Z,11.98
2017-11-13T06:57:07.136Z,12.45
2017-11-13T06:59:35.042Z,12.80
2017-11-13T07:02:02.780Z,11.20
2017-11-13T07:04:30.510Z,12.95
2017-11-13T07:06:59.022Z,11.55
2017-11-13T07:09:26.769Z,12.63
2017-11-13T07:11:54.516Z,11.98
2017-11-13T07:14:23.017Z,11.98
2017-11-13T07:16:50.741Z,13.10
2017-11-13T07:19:18.594Z,13.70
2017-11-13T07:21:46.466Z,12.43
2017-11-13T07:24:14.330Z,13.15
2017-11-13T07:26:42.199Z,13.98
2017-11-13T07:29:10.065Z,13.15
2017-11-13T07:31:37.936Z,13.13
2017-11-13T07:34:05.806Z,14.38
2017-11-13T07:36:33.669Z,15.35
2017-11-13T07:39:01.536Z,14.20
2017-11-13T07:41:30.048Z,12.77
2017-11-13T07:43:58.551Z,14.05
2017-11-13T07:46:26.263Z,12.88
2017-11-13T07:48:53.972Z,12.77
2017-11-13T07:51:22.448Z,13.75
2017-11-13T07:53:50.923Z,14.05
2017-11-13T07:56:19.412Z,11.52
2017-11-13T07:58:47.174Z,13.20
2017-11-13T08:01:14.893Z,13.18
2017-11-13T08:03:42.612Z,14.00
2017-11-13T08:06:10.429Z,12.68
2017-11-13T08:08:38.296Z,13.30
2017-11-13T08:11:06.165Z,12.55
2017-11-13T08:13:34.030Z,12.43
2017-11-13T08:16:01.903Z,11.48
2017-11-13T08:18:29.621Z,12.32
2017-11-13T08:20:57.427Z,11.00
2017-11-13T08:23:25.313Z,11.75
2017-11-13T08:25:53.165Z,11.82
2017-11-13T08:28:20.917Z,10.80
2017-11-13T08:30:48.712Z,11.80
2017-11-13T08:33:16.515Z,11.07
2017-11-13T08:35:44.294Z,9.77
2017-11-13T08:38:12.048Z,9.95
2017-11-13T08:40:39.789Z,7.60
2017-11-13T08:43:08.298Z,9.40
2017-11-13T08:45:36.044Z,8.65
2017-11-13T08:48:04.548Z,8.73
2017-11-13T08:50:32.282Z,8.88
2017-11-13T08:53:00.792Z,9.20
2017-11-13T08:55:28.532Z,8.43
2017-11-13T08:57:57.023Z,8.65
2017-11-13T09:00:25.525Z,7.93
2017-11-13T09:02:53.255Z,6.37
2017-11-13T09:05:21.752Z,6.87
2017-11-13T09:07:49.491Z,7.70
2017-11-13T09:10:17.308Z,7.80
2017-11-13T09:12:45.048Z,7.35
2017-11-13T09:15:12.791Z,6.82
2017-11-13T09:17:41.285Z,7.12
2017-11-13T09:20:09.816Z,6.75
2017-11-13T09:22:37.537Z,6.10
2017-11-13T09:25:06.019Z,6.72
2017-11-13T09:27:34.504Z,7.22
2017-11-13T09:30:02.225Z,6.80
2017-11-13T09:32:29.960Z,6.90
2017-11-13T09:34:57.675Z,6.70
2017-11-13T09:37:26.207Z,6.70
2017-11-13T09:39:53.955Z,6.50
2017-11-13T09:42:21.736Z,7.22
2017-11-13T09:44:49.459Z,5.78
2017-11-13T09:47:17.975Z,5.85
2017-11-13T09:49:45.743Z,6.53
2017-11-13T09:52:13.507Z,7.12
2017-11-13T09:54:41.273Z,5.87
2017-11-13T09:57:09.044Z,6.43
2017-11-13T09:59:36.795Z,6.22
2017-11-13T10:02:04.569Z,6.45
2017-11-13T10:04:32.303Z,7.68
2017-11-13T10:07:00.845Z,6.15
2017-11-13T10:09:28.584Z,6.65
2017-11-13T10:11:56.316Z,5.85
2017-11-13T10:14:24.898Z,6.50
2017-11-13T10:16:53.454Z,5.87
2017-11-13T10:19:21.296Z,6.28
2017-11-13T10:21:49.117Z,6.82
2017-11-13T10:24:16.888Z,6.10
2017-11-13T10:26:44.736Z,6.07
2017-11-13T10:29:13.254Z,4.68
2017-11-13T10:31:41.016Z,4.15
2017-11-13T10:34:08.776Z,5.18
2017-11-13T10:36:36.523Z,5.05
2017-11-13T10:39:04.354Z,4.75
2017-11-13T10:41:32.085Z,5.07
2017-11-13T10:43:59.863Z,6.18
2017-11-13T10:46:27.647Z,4.40
2017-11-13T10:48:56.167Z,4.95
2017-11-13T10:51:24.707Z,4.78
2017-11-13T10:53:52.535Z,5.25
2017-11-13T10:56:20.324Z,5.45
2017-11-13T10:58:48.139Z,4.40
2017-11-13T11:01:16.720Z,4.97
2017-11-13T11:03:45.304Z,4.60
2017-11-13T11:06:13.863Z,5.07
2017-11-13T11:08:41.623Z,5.43
2017-11-13T11:11:09.414Z,6.15
2017-11-13T11:13:53.841Z,4.75
2017-11-13T11:16:36.485Z,5.43
2017-11-13T11:19:23.699Z,4.50
2017-11-13T11:21:52.102Z,5.93
2017-11-13T11:24:19.865Z,4.87
2017-11-13T11:26:50.896Z,5.20
2017-11-13T11:29:25.108Z,4.65
2017-11-13T11:31:57.280Z,4.20
2017-11-13T11:34:40.659Z,4.30
2017-11-13T11:37:09.039Z,4.70
2017-11-13T11:39:36.801Z,3.58
2017-11-13T11:42:04.599Z,4.43
2017-11-13T11:44:50.146Z,4.15
2017-11-13T11:47:17.913Z,3.45
2017-11-13T11:49:45.675Z,3.62
2017-11-13T11:52:13.471Z,3.75
2017-11-13T11:54:42.123Z,4.20
2017-11-13T11:57:27.651Z,3.50
2017-11-13T11:59:55.451Z,4.47
2017-11-13T12:02:23.229Z,4.05
2017-11-13T12:04:50.954Z,4.37
2017-11-13T12:07:19.469Z,4.25
2017-11-13T12:09:47.233Z,3.55
2017-11-13T12:12:14.996Z,3.97
2017-11-13T12:14:42.747Z,3.80
2017-11-13T12:17:11.247Z,4.37
2017-11-13T12:19:39.010Z,4.32
2017-11-13T12:22:06.772Z,4.28
2017-11-13T12:24:34.514Z,4.35
2017-11-13T12:27:03.012Z,3.85
2017-11-13T12:29:30.732Z,3.53
2017-11-13T12:31:58.455Z,3.80
2017-11-13T12:34:26.169Z,4.12
2017-11-13T12:36:53.899Z,3.70
2017-11-13T12:39:21.639Z,3.10
2017-11-13T12:41:49.355Z,3.58
2017-11-13T12:44:17.075Z,3.70
2017-11-13T12:46:44.796Z,3.40
2017-11-13T12:49:12.515Z,3.00
2017-11-13T12:51:40.240Z,3.72
2017-11-13T12:54:08.760Z,2.92
2017-11-13T12:56:36.511Z,3.00
2017-11-13T12:59:04.266Z,3.05
2017-11-13T13:01:32.010Z,2.95
2017-11-13T13:04:00.532Z,3.05
2017-11-13T13:06:28.260Z,2.50
2017-11-13T13:08:56.797Z,2.80
2017-11-13T13:11:24.561Z,2.40
2017-11-13T13:13:52.307Z,2.60
2017-11-13T13:16:20.067Z,3.42
2017-11-13T13:18:47.807Z,2.75
2017-11-13T13:21:16.296Z,2.40
2017-11-13T13:23:44.791Z,2.40
2017-11-13T13:26:12.514Z,2.62
2017-11-13T13:28:41.057Z,2.90
2017-11-13T13:31:08.801Z,2.45
2017-11-13T13:33:36.531Z,2.53
2017-11-13T13:36:04.344Z,2.33
2017-11-13T13:38:32.090Z,2.35
2017-11-13T13:40:59.923Z,2.35
2017-11-13T13:43:27.651Z,2.40
2017-11-13T13:45:55.383Z,2.75
2017-11-13T13:48:23.135Z,3.00
2017-11-13T13:50:51.635Z,2.78
2017-11-13T13:53:19.472Z,3.28
2017-11-13T13:55:48.135Z,3.55
2017-11-13T13:58:15.923Z,3.75
2017-11-13T14:00:44.475Z,3.15
2017-11-13T14:03:12.263Z,2.72
2017-11-13T14:05:40.020Z,2.90
2017-11-13T14:08:07.821Z,3.47
2017-11-13T14:10:35.602Z,3.22
2017-11-13T14:13:03.395Z,3.15
2017-11-13T14:15:31.133Z,3.30
2017-11-13T14:17:58.878Z,3.70
2017-11-13T14:20:27.380Z,3.78
2017-11-13T14:22:55.191Z,3.37
2017-11-13T14:25:23.719Z,3.40
2017-11-13T14:27:51.448Z,4.20
2017-11-13T14:30:19.175Z,3.67
2017-11-13T14:32:47.198Z,3.20
2017-11-13T14:35:15.675Z,3.90
2017-11-13T14:37:43.395Z,4.10
2017-11-13T14:40:11.113Z,3.50
2017-11-13T14:42:39.639Z,3.70
2017-11-13T14:45:07.406Z,4.45
2017-11-13T14:47:35.133Z,3.42
2017-11-13T14:50:02.871Z,4.10
2017-11-13T14:52:30.603Z,3.97
2017-11-13T14:54:58.346Z,4.00
2017-11-13T14:57:26.072Z,4.00
2017-11-13T14:59:54.559Z,4.10
2017-11-13T15:02:23.049Z,3.95
2017-11-13T15:04:51.535Z,3.85
2017-11-13T15:07:20.040Z,4.80
2017-11-13T15:09:47.759Z,4.87
2017-11-13T15:12:15.471Z,4.32
2017-11-13T15:14:43.195Z,5.00
2017-11-13T15:17:11.679Z,4.28
2017-11-13T15:19:40.172Z,3.50
2017-11-13T15:22:08.883Z,4.32
2017-11-13T15:24:36.644Z,4.00
2017-11-13T15:27:04.403Z,4.40
2017-11-13T15:29:32.159Z,4.60
2017-11-13T15:31:59.879Z,4.40
2017-11-13T15:34:27.590Z,4.25
2017-11-13T15:36:55.307Z,3.95
2017-11-13T15:39:23.056Z,4.05
2017-11-13T15:41:50.768Z,4.65
2017-11-13T15:44:19.247Z,3.60
2017-11-13T15:46:47.740Z,4.47
2017-11-13T15:49:15.449Z,4.03
2017-11-13T15:51:43.152Z,3.72
2017-11-13T15:54:11.632Z,4.43
2017-11-13T15:56:40.119Z,3.67
2017-11-13T15:59:08.600Z,3.85
2017-11-13T16:01:37.092Z,3.78
2017-11-13T16:04:05.573Z,3.70
2017-11-13T16:06:34.046Z,4.35
2017-11-13T16:09:02.533Z,4.03
2017-11-13T16:11:31.062Z,3.85
2017-11-13T16:13:58.772Z,4.18
2017-11-13T16:16:27.257Z,4.95
2017-11-13T16:18:55.743Z,5.40
2017-11-13T16:21:24.227Z,4.97
2017-11-13T16:23:52.731Z,5.43
2017-11-13T16:26:20.467Z,5.43
2017-11-13T16:28:49.006Z,4.20
2017-11-13T16:31:16.776Z,4.35
2017-11-13T16:33:44.512Z,3.75
2017-11-13T16:36:12.235Z,4.80
2017-11-13T16:38:40.724Z,4.10
2017-11-13T16:41:09.217Z,4.35
2017-11-13T16:43:36.952Z,4.12
2017-11-13T16:46:04.696Z,4.05
2017-11-13T16:48:32.429Z,5.10
2017-11-13T16:51:00.151Z,4.50
2017-11-13T16:53:28.646Z,4.15
2017-11-13T16:55:57.167Z,4.68
2017-11-13T16:58:24.899Z,6.03
2017-11-13T17:00:52.634Z,5.25
2017-11-13T17:03:20.365Z,4.87
2017-11-13T17:05:48.112Z,6.03
2017-11-13T17:08:15.847Z,5.47
2017-11-13T17:10:44.348Z,5.70
2017-11-13T17:13:12.072Z,6.22
2017-11-13T17:15:39.807Z,5.68
2017-11-13T17:18:07.532Z,5.00
2017-11-13T17:20:36.017Z,5.32
2017-11-13T17:23:03.753Z,5.85
2017-11-13T17:25:31.496Z,5.65
2017-11-13T17:27:59.229Z,5.10
2017-11-13T17:30:26.964Z,7.05
2017-11-13T17:32:55.450Z,5.75
2017-11-13T17:35:23.972Z,6.75
2017-11-13T17:37:51.696Z,6.70
2017-11-13T17:40:19.447Z,6.85
2017-11-13T17:42:47.955Z,7.45
2017-11-13T17:45:15.749Z,6.97
2017-11-13T17:47:43.471Z,7.55
2017-11-13T17:50:11.968Z,8.70
2017-11-13T17:52:39.704Z,9.77
2017-11-13T17:55:08.219Z,8.68
2017-11-13T17:57:36.008Z,8.10
2017-11-13T18:00:03.784Z,7.87
2017-11-13T18:02:31.535Z,7.78
2017-11-13T18:04:59.255Z,8.23
2017-11-13T18:07:27.760Z,6.50
2017-11-13T18:09:55.492Z,6.45
2017-11-13T18:12:23.991Z,6.70
2017-11-13T18:14:52.549Z,8.00
2017-11-13T18:17:20.290Z,6.57
2017-11-13T18:19:48.024Z,7.43
2017-11-13T18:22:15.748Z,7.68
2017-11-13T18:24:44.250Z,8.32
2017-11-13T18:27:12.754Z,8.43
2017-11-13T18:29:40.493Z,7.10
2017-11-13T18:32:09.000Z,7.68
2017-11-13T18:34:36.722Z,9.23
2017-11-13T18:37:04.451Z,8.40
2017-11-13T18:39:32.186Z,7.75
2017-11-13T18:41:59.917Z,8.25
2017-11-13T18:44:28.431Z,8.25
2017-11-13T18:46:56.161Z,7.75
2017-11-13T18:49:23.898Z,7.62
2017-11-13T18:51:51.638Z,9.30
2017-11-13T18:54:19.368Z,8.43
2017-11-13T18:56:47.869Z,8.40
2017-11-13T18:59:15.595Z,7.05
2017-11-13T19:01:43.331Z,6.45
2017-11-13T19:04:11.060Z,6.82
2017-11-13T19:06:38.799Z,7.75
2017-11-13T19:09:07.307Z,7.57
2017-11-13T19:11:35.027Z,7.22
2017-11-13T19:14:02.764Z,7.32
2017-11-13T19:16:30.496Z,7.70
2017-11-13T19:18:58.227Z,7.18
2017-11-13T19:21:25.966Z,6.47
2017-11-13T19:23:53.711Z,5.53
2017-11-13T19:26:21.442Z,6.65
2017-11-13T19:28:49.935Z,6.68
2017-11-13T19:31:17.675Z,6.37
2017-11-13T19:33:46.208Z,5.40
2017-11-13T19:36:13.977Z,7.55
2017-11-13T19:38:41.716Z,6.78
2017-11-13T19:41:09.490Z,6.40
2017-11-13T19:43:37.264Z,6.00
2017-11-13T19:46:05.088Z,5.72
2017-11-13T19:48:33.604Z,6.72
2017-11-13T19:51:01.333Z,6.03
2017-11-13T19:53:29.847Z,6.95
2017-11-13T19:55:57.584Z,7.20
2017-11-13T19:58:26.092Z,5.07
2017-11-13T20:00:53.844Z,5.80
2017-11-13T20:03:21.597Z,5.55
2017-11-13T20:05:50.099Z,5.57
2017-11-13T20:08:17.815Z,6.43
2017-11-13T20:10:45.561Z,6.50
2017-11-13T20:13:13.291Z,7.10
2017-11-13T20:15:41.035Z,5.80
2017-11-13T20:18:09.546Z,7.40
2017-11-13T20:20:37.304Z,7.37
2017-11-13T20:23:05.049Z,9.05
2017-11-13T20:25:32.773Z,11.43
2017-11-13T20:28:00.500Z,11.88
2017-11-13T20:30:28.218Z,11.68
2017-11-13T20:32:55.943Z,10.52
2017-11-13T20:35:23.658Z,10.85
2017-11-13T20:37:52.147Z,9.88
2017-11-13T20:40:20.629Z,9.45
2017-11-13T20:42:49.114Z,9.38
2017-11-13T20:45:17.693Z,8.88
2017-11-13T20:47:46.177Z,9.05
2017-11-13T20:50:14.718Z,8.23
2017-11-13T20:52:42.442Z,8.63
2017-11-13T20:55:10.188Z,11.20
2017-11-13T20:57:38.666Z,11.63
2017-11-13T21:00:07.217Z,11.95
2017-11-13T21:02:35.007Z,11.38
2017-11-13T21:05:03.523Z,10.10
2017-11-13T21:07:31.251Z,8.85
2017-11-13T21:09:58.972Z,9.68
2017-11-13T21:12:26.695Z,9.00
2017-11-13T21:14:55.456Z,9.20
2017-11-13T21:17:23.216Z,9.85
2017-11-13T21:19:52.443Z,8.40
2017-11-13T21:22:22.945Z,8.23
2017-11-13T21:24:50.695Z,8.00
2017-11-13T21:27:18.429Z,9.15
2017-11-13T21:29:46.169Z,8.77
2017-11-13T21:32:14.684Z,9.02
2017-11-13T21:34:42.419Z,8.02
2017-11-13T21:37:10.142Z,7.85
2017-11-13T21:39:37.888Z,8.40
2017-11-13T21:42:05.622Z,8.50
2017-11-13T21:44:33.352Z,7.62
2017-11-13T21:47:01.103Z,10.20
2017-11-13T21:49:28.838Z,8.65
2017-11-13T21:51:56.563Z,9.40
2017-11-13T21:54:25.068Z,8.75
2017-11-13T21:56:52.792Z,9.82
2017-11-13T21:59:21.325Z,10.45
2017-11-13T22:01:49.085Z,11.30
2017-11-13T22:04:16.807Z,14.10
2017-11-13T22:06:45.091Z,13.02
2017-11-13T22:09:13.707Z,10.30
2017-11-13T22:11:43.254Z,9.93
2017-11-13T22:14:11.095Z,10.38
2017-11-13T22:16:38.883Z,10.70
2017-11-13T22:19:08.305Z,9.38
2017-11-13T22:21:37.900Z,10.45
2017-11-13T22:24:07.477Z,10.13
2017-11-13T22:26:37.080Z,11.32
2017-11-13T22:29:25.702Z,10.70
2017-11-13T22:31:56.068Z,10.43
2017-11-13T22:34:23.794Z,10.65
2017-11-13T22:36:52.292Z,9.50
2017-11-13T22:39:20.055Z,10.23
2017-11-13T22:41:47.786Z,10.05
2017-11-13T22:44:15.573Z,10.25
2017-11-13T22:46:44.059Z,9.80
2017-11-13T22:49:11.805Z,10.82
2017-11-13T22:51:40.310Z,9.27
2017-11-13T22:54:08.051Z,8.90
2017-11-13T22:56:35.795Z,12.75
2017-11-13T22:59:03.528Z,8.90
2017-11-13T23:01:31.255Z,9.70
2017-11-13T23:03:59.734Z,11.73
2017-11-13T23:06:28.213Z,11.20
2017-11-13T23:08:56.695Z,9.65
2017-11-13T23:11:25.203Z,10.90
2017-11-13T23:13:52.938Z,10.00
2017-11-13T23:16:21.424Z,9.23
2017-11-13T23:18:49.900Z,8.85
2017-11-13T23:21:18.399Z,8.88
2017-11-13T23:23:47.013Z,8.85
2017-11-13T23:26:14.766Z,10.25
2017-11-13T23:28:42.486Z,9.50
2017-11-13T23:31:10.195Z,9.98
2017-11-13T23:33:37.903Z,9.48
2017-11-13T23:36:05.616Z,8.60
2017-11-13T23:38:33.335Z,7.65
2017-11-13T23:41:01.045Z,8.60
2017-11-13T23:43:28.802Z,9.82
2017-11-13T23:45:56.524Z,9.77
2017-11-13T23:48:24.295Z,8.90
2017-11-13T23:50:52.019Z,9.65
2017-11-13T23:53:19.743Z,8.98
2017-11-13T23:55:48.286Z,7.97
2017-11-13T23:58:16.019Z,8.98
